Time;durP1;ratioP1;P1;durP2;ratioP2;P2;SDS_P1;SDS_P2;PMS_P1;PMS_P2;Temp;Humidity;BMP_temperature;BMP_pressure;BME280_temperature;BME280_humidity;BME280_pressure;Samples;Min_cycle;Max_cycle;Signal;HPM_P1;HPM_P2
2021/04/08 00:01:42;;;;;;;19.98;2.80;;;;;;;0.06;95.09;101570.56;5035125;28;20362;-76
2021/04/08 00:04:08;;;;;;;16.15;3.22;;;;;;;0.09;95.33;101558.41;5052866;28;20037;-76
2021/04/08 00:06:33;;;;;;;21.23;2.70;;;;;;;0.05;95.50;101577.47;5048572;28;20078;-79
2021/04/08 00:08:59;;;;;;;21.08;3.45;;;;;;;0.12;94.80;101570.34;5056798;28;20151;-77
2021/04/08 00:11:25;;;;;;;28.05;3.13;;;;;;;0.01;95.53;101568.19;5044200;28;20047;-77
2021/04/08 00:13:50;;;;;;;21.85;2.30;;;;;;;0.12;95.35;101571.19;5054434;28;20041;-76
2021/04/08 00:16:16;;;;;;;25.95;3.13;;;;;;;0.12;95.72;101583.25;5070668;28;20052;-74
2021/04/08 00:18:43;;;;;;;23.67;2.95;;;;;;;0.17;94.53;101579.59;5055900;28;20067;-76
2021/04/08 00:21:09;;;;;;;22.02;2.38;;;;;;;0.22;94.05;101582.00;5069678;28;20098;-78
2021/04/08 00:23:35;;;;;;;25.08;2.83;;;;;;;0.26;94.16;101583.53;5071497;28;20090;-78
2021/04/08 00:26:00;;;;;;;19.67;2.85;;;;;;;0.18;94.04;101589.00;5069292;28;20071;-80
2021/04/08 00:28:26;;;;;;;31.05;2.83;;;;;;;0.14;94.51;101594.34;5036975;28;20043;-77
2021/04/08 00:30:51;;;;;;;30.63;3.10;;;;;;;0.29;93.99;101591.19;5071913;28;20047;-77
2021/04/08 00:33:17;;;;;;;23.50;2.92;;;;;;;0.29;94.07;101587.78;5038945;28;20072;-79
2021/04/08 00:35:44;;;;;;;20.45;2.13;;;;;;;0.30;93.75;101592.88;5063579;28;20069;-77
2021/04/08 00:38:11;;;;;;;24.42;2.63;;;;;;;0.17;94.19;101597.66;5047761;28;20040;-76
2021/04/08 00:40:37;;;;;;;20.67;2.45;;;;;;;0.16;94.34;101602.88;5067029;28;20070;-76
2021/04/08 00:43:03;;;;;;;23.33;3.15;;;;;;;0.16;94.40;101614.03;5049980;28;20048;-76
2021/04/08 00:45:30;;;;;;;22.45;2.97;;;;;;;0.18;93.94;101601.06;5088418;28;20037;-77
2021/04/08 00:47:55;;;;;;;28.48;2.88;;;;;;;0.29;93.08;101611.81;5053709;28;20583;-76
2021/04/08 00:50:22;;;;;;;23.75;2.65;;;;;;;0.33;92.90;101609.97;5055423;28;20070;-78
2021/04/08 00:53:01;;;;;;;25.33;2.67;;;;;;;0.35;92.54;101611.56;5071577;28;20053;-76
2021/04/08 00:55:33;;;;;;;27.25;2.55;;;;;;;0.17;92.93;101612.28;5055020;28;20099;-77
2021/04/08 00:58:02;;;;;;;22.75;3.03;;;;;;;0.16;93.13;101620.94;5070278;28;20339;-78
2021/04/08 01:00:28;;;;;;;23.50;2.88;;;;;;;0.25;92.23;101612.00;5037002;28;20047;-76
2021/04/08 01:02:54;;;;;;;25.92;2.80;;;;;;;0.27;92.38;101629.09;5043457;28;20052;-75
2021/04/08 01:05:19;;;;;;;25.65;2.20;;;;;;;0.17;92.70;101622.59;5070562;28;20058;-76
2021/04/08 01:07:45;;;;;;;26.05;2.72;;;;;;;0.19;92.35;101626.00;5052012;28;20521;-77
2021/04/08 01:10:11;;;;;;;21.45;2.30;;;;;;;0.11;92.67;101631.41;5035085;28;20043;-78
2021/04/08 01:12:37;;;;;;;29.05;2.67;;;;;;;0.11;92.73;101636.56;5054200;28;20040;-75
2021/04/08 01:15:06;;;;;;;21.20;3.08;;;;;;;0.11;93.06;101633.16;5069951;28;20049;-79
2021/04/08 01:17:44;;;;;;;27.83;3.08;;;;;;;0.30;92.29;101633.31;5071678;28;20044;-78
2021/04/08 01:20:33;;;;;;;29.42;2.50;;;;;;;0.42;91.72;101655.25;5055282;28;20056;-77
2021/04/08 01:23:33;;;;;;;18.45;2.25;;;;;;;0.44;91.84;101656.84;5037446;28;20032;-76
2021/04/08 01:26:10;;;;;;;23.27;2.35;;;;;;;0.37;92.31;101660.56;5069675;28;20386;-76
2021/04/08 01:28:41;;;;;;;17.92;2.85;;;;;;;0.42;91.43;101661.25;5067898;28;20040;-79
2021/04/08 01:31:12;;;;;;;20.63;2.72;;;;;;;0.29;90.98;101657.44;5065931;28;20058;-76
2021/04/08 01:33:43;;;;;;;18.58;2.15;;;;;;;0.31;90.98;101663.38;5070048;28;20052;-74
2021/04/08 01:36:15;;;;;;;20.20;2.72;;;;;;;0.24;91.07;101665.34;5052579;28;20459;-77
2021/04/08 01:38:44;;;;;;;28.05;2.53;;;;;;;0.18;91.87;101671.56;5050930;28;20057;-75
2021/04/08 01:41:11;;;;;;;25.25;2.25;;;;;;;0.21;91.27;101668.06;5052813;28;20114;-76
2021/04/08 01:43:40;;;;;;;15.95;2.00;;;;;;;0.13;91.58;101665.75;5062311;28;20037;-77
2021/04/08 01:46:08;;;;;;;25.08;3.22;;;;;;;0.06;91.78;101666.88;5052944;28;20618;-75
2021/04/08 01:48:36;;;;;;;14.20;2.10;;;;;;;0.00;93.03;101667.13;5048262;28;20045;-76
2021/04/08 01:51:04;;;;;;;17.52;2.80;;;;;;;0.12;93.14;101671.81;5070177;28;20055;-76
2021/04/08 01:53:33;;;;;;;29.15;2.40;;;;;;;0.21;92.98;101673.22;5052928;28;20047;-75
2021/04/08 01:56:01;;;;;;;26.90;3.08;;;;;;;0.51;91.15;101680.69;5054790;28;20509;-76
2021/04/08 01:58:28;;;;;;;14.60;2.53;;;;;;;0.48;91.70;101706.63;5069789;28;20044;-78
2021/04/08 02:00:55;;;;;;;22.13;3.28;;;;;;;0.41;92.88;101698.25;5069516;28;20052;-76
2021/04/08 02:03:22;;;;;;;20.67;2.22;;;;;;;0.38;93.51;101694.06;5081339;28;20044;-78
2021/04/08 02:05:48;;;;;;;16.65;2.47;;;;;;;0.39;92.77;101693.16;5050896;28;20049;-78
2021/04/08 02:08:15;;;;;;;15.35;1.70;;;;;;;0.35;93.20;101699.34;5063608;28;20494;-78
2021/04/08 02:10:42;;;;;;;14.07;2.35;;;;;;;0.28;93.02;101699.63;5075414;28;20071;-79
2021/04/08 02:13:10;;;;;;;23.00;2.38;;;;;;;0.33;93.03;101693.38;5033226;28;20048;-76
2021/04/08 02:15:35;;;;;;;15.50;2.25;;;;;;;0.15;93.16;101687.19;5052943;28;20055;-77
2021/04/08 02:18:03;;;;;;;12.23;1.33;;;;;;;0.02;93.63;101700.56;5031136;28;20045;-74
2021/04/08 02:20:33;;;;;;;14.20;1.65;;;;;;;0.01;93.66;101697.16;5067221;28;20044;-80
2021/04/08 02:23:04;;;;;;;13.85;1.77;;;;;;;0.09;93.29;101702.03;5051757;28;20040;-78
2021/04/08 02:25:33;;;;;;;9.40;1.30;;;;;;;0.05;93.01;101705.63;5050289;28;20048;-78
2021/04/08 02:28:09;;;;;;;19.13;1.83;;;;;;;0.02;92.63;101700.56;5068846;28;20182;-76
2021/04/08 02:30:57;;;;;;;15.18;1.73;;;;;;;-0.10;93.20;101710.41;5072033;28;20126;-75
2021/04/08 02:33:24;;;;;;;15.10;1.70;;;;;;;-0.10;93.85;101718.16;5052900;28;20044;-76
2021/04/08 02:35:50;;;;;;;22.23;2.25;;;;;;;0.02;94.20;101732.38;5068870;28;20105;-78
2021/04/08 02:38:17;;;;;;;15.77;2.03;;;;;;;0.22;93.54;101723.91;5050104;28;20049;-77
2021/04/08 02:40:43;;;;;;;20.20;2.70;;;;;;;0.23;93.24;101730.78;5064670;28;20040;-77
2021/04/08 02:43:10;;;;;;;17.17;2.20;;;;;;;0.25;93.61;101735.88;5065946;28;20516;-76
2021/04/08 02:45:36;;;;;;;12.65;2.40;;;;;;;0.19;93.72;101727.47;5061782;28;20458;-77
2021/04/08 02:48:06;;;;;;;16.10;2.75;;;;;;;0.19;93.73;101735.19;5036760;28;20387;-76
2021/04/08 02:50:32;;;;;;;12.77;2.22;;;;;;;0.11;94.02;101739.78;5070542;28;20039;-77
2021/04/08 02:53:03;;;;;;;22.73;2.50;;;;;;;0.09;94.06;101751.06;5052148;28;20059;-76
2021/04/08 02:55:42;;;;;;;16.25;2.03;;;;;;;0.17;94.17;101747.31;5030509;28;20049;-77
2021/04/08 02:58:11;;;;;;;14.30;2.00;;;;;;;0.20;93.81;101748.94;5030859;28;20049;-76
2021/04/08 03:00:43;;;;;;;12.10;1.95;;;;;;;0.11;94.24;101746.69;5053460;28;20434;-78
2021/04/08 03:03:11;;;;;;;13.07;1.83;;;;;;;0.19;93.62;101765.31;5039576;28;20573;-77
2021/04/08 03:05:43;;;;;;;8.43;1.60;;;;;;;0.28;93.10;101758.97;5049890;28;20893;-76
2021/04/08 03:08:12;;;;;;;13.63;2.00;;;;;;;0.23;93.63;101758.28;5049354;28;20800;-76
2021/04/08 03:10:39;;;;;;;16.83;2.17;;;;;;;0.26;93.37;101761.59;5065050;28;20045;-76
2021/04/08 03:13:07;;;;;;;18.20;2.47;;;;;;;0.28;93.08;101764.13;5065542;28;20040;-77
2021/04/08 03:15:37;;;;;;;14.25;2.10;;;;;;;0.10;93.89;101768.22;5068309;28;20044;-76
2021/04/08 03:18:22;;;;;;;16.95;2.25;;;;;;;0.25;93.29;101772.84;5067721;28;20082;-78
2021/04/08 03:20:51;;;;;;;15.57;2.58;;;;;;;0.15;93.17;101769.75;5046123;28;20417;-79
2021/04/08 03:23:20;;;;;;;15.02;2.17;;;;;;;0.03;93.98;101770.16;5051712;28;20048;-76
2021/04/08 03:25:49;;;;;;;12.43;2.15;;;;;;;-0.16;94.09;101777.69;5066814;28;20116;-76
2021/04/08 03:28:16;;;;;;;22.33;2.22;;;;;;;-0.33;94.94;101782.59;5065487;28;20438;-77
2021/04/08 03:30:43;;;;;;;17.23;1.70;;;;;;;-0.29;94.84;101784.16;5053598;28;20123;-75
2021/04/08 03:33:09;;;;;;;13.52;1.80;;;;;;;-0.36;95.13;101791.25;5035125;28;20052;-76
2021/04/08 03:35:37;;;;;;;16.50;1.67;;;;;;;-0.23;94.35;101797.72;5068620;28;20057;-77
2021/04/08 03:38:04;;;;;;;23.45;1.55;;;;;;;-0.25;94.68;101804.63;5063404;28;20090;-75
2021/04/08 03:40:29;;;;;;;17.83;2.45;;;;;;;-0.24;94.36;101801.16;5029804;28;20036;-76
2021/04/08 03:42:55;;;;;;;20.02;1.63;;;;;;;-0.31;94.42;101811.72;5048096;28;20101;-76
2021/04/08 03:45:21;;;;;;;18.35;1.83;;;;;;;-0.38;94.55;101818.81;5049207;28;20040;-77
2021/04/08 03:47:48;;;;;;;28.65;2.20;;;;;;;-0.36;94.67;101814.44;5074576;28;20797;-77
2021/04/08 03:50:15;;;;;;;14.88;1.58;;;;;;;-0.36;94.86;101822.19;5069776;28;20079;-76
2021/04/08 03:52:43;;;;;;;24.40;3.03;;;;;;;-0.31;94.89;101812.56;5054031;28;20044;-75
2021/04/08 03:55:09;;;;;;;20.75;1.80;;;;;;;-0.30;94.81;101819.44;5039345;28;20049;-76
2021/04/08 03:57:38;;;;;;;16.15;2.05;;;;;;;-0.22;94.49;101819.16;5038750;28;20083;-74
2021/04/08 04:00:10;;;;;;;11.93;1.80;;;;;;;-0.24;94.30;101818.38;5079992;28;20049;-77
2021/04/08 04:02:37;;;;;;;21.48;2.45;;;;;;;-0.10;93.59;101820.50;5050735;28;20044;-75
2021/04/08 04:05:04;;;;;;;26.27;2.35;;;;;;;-0.06;93.19;101822.94;5084640;28;20096;-79
2021/04/08 04:07:35;;;;;;;16.02;1.98;;;;;;;-0.13;93.23;101831.75;5049020;28;20083;-77
2021/04/08 04:10:01;;;;;;;15.15;2.15;;;;;;;-0.26;93.86;101830.47;5048540;28;20510;-76
2021/04/08 04:12:28;;;;;;;17.38;2.20;;;;;;;-0.40;93.75;101842.09;5056942;28;20040;-76
2021/04/08 04:14:57;;;;;;;12.60;2.55;;;;;;;-0.43;94.14;101847.31;5055211;28;20044;-78
2021/04/08 04:17:30;;;;;;;20.30;2.22;;;;;;;-0.49;94.60;101841.50;5087993;28;20040;-76
2021/04/08 04:19:57;;;;;;;18.48;2.20;;;;;;;-0.33;94.00;101839.31;5072886;28;20238;-78
2021/04/08 04:22:23;;;;;;;19.23;1.85;;;;;;;-0.31;93.59;101851.25;5071120;28;20043;-76
2021/04/08 04:24:50;;;;;;;14.30;2.10;;;;;;;-0.44;93.77;101857.69;5070077;28;20090;-76
2021/04/08 04:27:15;;;;;;;9.13;1.60;;;;;;;-0.61;94.59;101865.94;5068004;28;20536;-78
2021/04/08 04:29:41;;;;;;;22.85;2.40;;;;;;;-0.44;94.55;101860.25;5046365;28;20033;-77
2021/04/08 04:32:11;;;;;;;15.60;2.33;;;;;;;-0.31;93.87;101860.72;5033576;28;20064;-76
2021/04/08 04:34:40;;;;;;;20.08;1.92;;;;;;;-0.13;93.33;101865.28;5066599;28;20760;-77
2021/04/08 04:37:06;;;;;;;16.60;1.88;;;;;;;-0.06;92.32;101866.78;5056353;28;20045;-77
2021/04/08 04:39:32;;;;;;;20.75;2.40;;;;;;;-0.05;92.74;101873.59;5056237;28;20043;-75
2021/04/08 04:41:58;;;;;;;14.82;2.03;;;;;;;-0.12;92.58;101871.28;5057781;28;20627;-74
2021/04/08 04:44:24;;;;;;;12.52;1.83;;;;;;;-0.15;92.81;101877.41;5055603;28;20129;-77
2021/04/08 04:46:53;;;;;;;16.75;2.20;;;;;;;-0.28;93.56;101876.09;5068496;28;20155;-76
2021/04/08 04:49:18;;;;;;;17.55;2.20;;;;;;;-0.17;93.42;101871.44;5064447;28;20131;-77
2021/04/08 04:51:44;;;;;;;16.58;1.65;;;;;;;-0.20;91.97;101874.94;5056462;28;20107;-75
2021/04/08 04:54:10;;;;;;;17.55;2.20;;;;;;;-0.12;91.63;101876.44;5078868;28;20436;-77
2021/04/08 04:56:35;;;;;;;19.75;1.88;;;;;;;-0.12;91.26;101879.03;5038929;28;20100;-75
2021/04/08 04:59:01;;;;;;;14.05;1.92;;;;;;;-0.06;91.33;101882.25;5070841;28;20060;-76
2021/04/08 05:01:27;;;;;;;14.80;1.83;;;;;;;-0.10;91.18;101884.97;5062787;28;20089;-77
2021/04/08 05:03:53;;;;;;;10.65;1.77;;;;;;;-0.11;90.97;101883.31;5056205;28;20040;-76
2021/04/08 05:06:21;;;;;;;13.23;1.80;;;;;;;-0.20;91.20;101882.69;5057068;28;20109;-81
2021/04/08 05:08:46;;;;;;;9.55;1.42;;;;;;;-0.11;91.15;101891.88;5072575;28;20044;-77
2021/04/08 05:11:12;;;;;;;11.60;1.48;;;;;;;-0.13;91.26;101896.25;5047963;28;20058;-77
2021/04/08 05:13:38;;;;;;;11.70;1.92;;;;;;;-0.10;91.54;101892.72;5071167;28;20501;-76
2021/04/08 05:16:04;;;;;;;13.57;1.85;;;;;;;-0.14;92.62;101899.69;5053761;28;20510;-74
2021/04/08 05:18:29;;;;;;;19.38;1.70;;;;;;;-0.01;91.86;101902.72;5063826;28;20037;-76
2021/04/08 05:20:56;;;;;;;18.98;2.08;;;;;;;0.01;92.06;101902.69;5071783;28;20139;-76
2021/04/08 05:23:22;;;;;;;9.73;1.50;;;;;;;-0.01;92.10;101902.72;5070168;28;20043;-76
2021/04/08 05:25:50;;;;;;;14.32;2.20;;;;;;;0.09;91.57;101908.44;5054431;28;20055;-75
2021/04/08 05:28:16;;;;;;;19.27;1.65;;;;;;;0.17;91.27;101917.63;5050451;28;20041;-77
2021/04/08 05:30:41;;;;;;;15.05;2.45;;;;;;;0.22;90.70;101916.63;5054744;28;20047;-75
2021/04/08 05:33:07;;;;;;;11.85;1.63;;;;;;;0.31;90.48;101913.72;5036945;28;20135;-75
2021/04/08 05:35:33;;;;;;;17.17;2.75;;;;;;;0.32;90.81;101925.72;5058656;28;20037;-75
2021/04/08 05:37:58;;;;;;;14.95;1.90;;;;;;;0.35;91.01;101929.03;5060924;28;20040;-74
2021/04/08 05:40:24;;;;;;;17.42;1.90;;;;;;;0.33;91.41;101938.59;5056946;28;20063;-79
2021/04/08 05:42:49;;;;;;;16.90;2.03;;;;;;;0.45;90.36;101934.72;5051703;28;20119;-76
2021/04/08 05:45:17;;;;;;;24.08;2.33;;;;;;;0.43;90.25;101940.84;5048245;28;20175;-74
2021/04/08 05:47:43;;;;;;;17.23;2.25;;;;;;;0.58;89.14;101942.91;5063857;28;20121;-75
2021/04/08 05:50:10;;;;;;;17.67;2.33;;;;;;;0.56;88.70;101950.69;5050018;28;20055;-78
2021/04/08 05:52:36;;;;;;;24.45;2.58;;;;;;;0.51;89.34;101942.28;5053018;28;20059;-75
2021/04/08 05:55:02;;;;;;;21.52;2.33;;;;;;;0.36;89.31;101941.06;5035478;28;21180;-74
2021/04/08 05:57:28;;;;;;;16.30;2.00;;;;;;;0.31;90.12;101953.28;5066748;28;20512;-74
2021/04/08 05:59:54;;;;;;;17.13;2.65;;;;;;;0.42;89.94;101955.50;5049601;28;20120;-76
2021/04/08 06:02:20;;;;;;;23.55;2.60;;;;;;;0.43;89.33;101943.44;5044832;28;20104;-74
2021/04/08 06:04:45;;;;;;;14.98;1.83;;;;;;;0.45;89.37;101957.13;5086800;28;20520;-78
2021/04/08 06:07:11;;;;;;;12.38;1.90;;;;;;;0.43;90.02;101958.94;5053213;28;20047;-75
2021/04/08 06:09:36;;;;;;;13.43;2.00;;;;;;;0.57;88.98;101961.91;5048720;28;20060;-77
2021/04/08 06:12:02;;;;;;;13.52;1.90;;;;;;;0.66;88.99;101965.88;5069333;28;20036;-76
2021/04/08 06:14:28;;;;;;;15.60;1.83;;;;;;;0.81;88.78;101972.25;5089675;27;20057;-78
2021/04/08 06:16:55;;;;;;;17.55;2.38;;;;;;;0.86;88.42;101971.22;5034459;28;20052;-77
2021/04/08 06:19:21;;;;;;;15.68;2.00;;;;;;;1.04;87.83;101977.47;5069391;28;20051;-74
2021/04/08 06:21:46;;;;;;;15.95;1.85;;;;;;;1.12;88.34;101977.19;5069806;28;20045;-77
2021/04/08 06:24:12;;;;;;;13.20;2.33;;;;;;;1.19;87.80;101978.69;5060474;28;20036;-75
2021/04/08 06:26:38;;;;;;;12.95;2.40;;;;;;;1.29;88.21;101984.34;5053026;28;20048;-75
2021/04/08 06:29:03;;;;;;;13.73;2.25;;;;;;;1.52;86.97;101986.06;5052799;28;20143;-75
2021/04/08 06:31:29;;;;;;;11.18;2.20;;;;;;;1.65;86.42;101991.63;5057087;28;20044;-78
2021/04/08 06:33:54;;;;;;;15.52;2.20;;;;;;;1.59;85.52;101984.13;5033486;28;20049;-77
2021/04/08 06:36:21;;;;;;;12.65;1.83;;;;;;;1.68;85.50;101994.94;5049811;28;20049;-75
2021/04/08 06:38:47;;;;;;;17.38;2.30;;;;;;;1.72;85.26;101993.09;5066106;28;20056;-76
2021/04/08 06:41:15;;;;;;;16.60;2.30;;;;;;;1.79;85.65;101997.13;5044867;28;20041;-75
2021/04/08 06:43:43;;;;;;;19.08;2.55;;;;;;;1.90;84.79;101997.56;5051870;28;20497;-75
2021/04/08 06:46:10;;;;;;;21.10;2.95;;;;;;;2.03;84.71;101997.91;5066337;28;20076;-78
2021/04/08 06:49:01;;;;;;;17.17;2.40;;;;;;;2.12;84.24;102000.13;5038889;28;20063;-77
2021/04/08 06:51:32;;;;;;;14.23;2.17;;;;;;;2.18;84.09;102006.81;5062079;28;20375;-76
2021/04/08 06:54:00;;;;;;;13.43;2.40;;;;;;;2.33;84.04;102006.19;5052044;28;20047;-77
2021/04/08 06:56:29;;;;;;;14.98;2.13;;;;;;;2.44;84.52;102002.31;5051617;28;20082;-82
2021/04/08 06:58:56;;;;;;;17.33;2.10;;;;;;;2.61;82.70;102007.66;5069657;28;20174;-77
2021/04/08 07:01:22;;;;;;;15.35;2.53;;;;;;;2.81;81.14;102006.81;5042946;28;20036;-79
2021/04/08 07:03:48;;;;;;;14.95;2.17;;;;;;;3.07;81.32;102010.88;5070220;28;20210;-76
2021/04/08 07:06:14;;;;;;;12.38;1.85;;;;;;;3.29;80.82;102015.09;5069754;28;20132;-74
2021/04/08 07:08:40;;;;;;;15.20;2.38;;;;;;;3.46;79.90;102017.78;5031995;28;20533;-77
2021/04/08 07:11:05;;;;;;;12.90;2.10;;;;;;;3.43;81.12;102017.09;5040637;28;20141;-75
2021/04/08 07:13:33;;;;;;;16.05;2.45;;;;;;;3.55;82.69;102020.88;5086478;28;20044;-76
2021/04/08 07:16:00;;;;;;;13.10;2.30;;;;;;;3.54;80.73;102017.44;5067986;28;20063;-76
2021/04/08 07:18:26;;;;;;;18.60;2.17;;;;;;;3.30;80.45;102025.41;5080891;28;20051;-78
2021/04/08 07:20:54;;;;;;;15.68;1.75;;;;;;;2.98;80.98;102032.00;5049617;28;20094;-79
2021/04/08 07:23:19;;;;;;;12.43;1.98;;;;;;;2.76;83.24;102041.59;5032664;28;20047;-76
2021/04/08 07:26:08;;;;;;;14.32;2.13;;;;;;;2.59;83.30;102037.13;5068704;28;20037;-76
2021/04/08 07:28:36;;;;;;;13.45;1.92;;;;;;;2.38;84.21;102046.59;5045164;28;20106;-76
2021/04/08 07:31:28;;;;;;;15.20;2.67;;;;;;;2.36;83.48;102049.25;5040047;28;20064;-78
2021/04/08 07:33:57;;;;;;;20.10;2.40;;;;;;;2.42;83.96;102061.94;5056281;28;20047;-77
2021/04/08 07:36:28;;;;;;;18.88;2.13;;;;;;;2.28;85.08;102062.50;5039365;28;20197;-76
2021/04/08 07:38:55;;;;;;;23.17;1.95;;;;;;;2.19;85.66;102065.47;5056147;28;20040;-79
2021/04/08 07:41:31;;;;;;;7.95;1.90;;;;;;;2.08;87.53;102052.09;5059942;28;20095;-75
2021/04/08 07:44:05;;;;;;;17.55;1.92;;;;;;;1.99;88.15;102062.78;5070278;28;20052;-75
2021/04/08 07:46:33;;;;;;;12.80;2.20;;;;;;;2.06;89.36;102056.47;5059382;28;20062;-76
2021/04/08 07:48:59;;;;;;;14.48;2.20;;;;;;;2.07;89.48;102060.75;5071349;28;20037;-78
2021/04/08 07:51:33;;;;;;;20.85;2.70;;;;;;;2.25;89.91;102060.03;5070065;28;20059;-76
2021/04/08 07:54:13;;;;;;;14.98;2.28;;;;;;;2.38;87.66;102068.16;5044034;28;20048;-77
2021/04/08 07:56:39;;;;;;;20.77;2.55;;;;;;;2.57;88.06;102072.59;5065824;28;20040;-77
2021/04/08 07:59:34;;;;;;;20.17;2.85;;;;;;;2.80;87.46;102071.66;5072074;28;20124;-76
2021/04/08 08:02:03;;;;;;;9.50;2.03;;;;;;;2.88;84.85;102075.63;5064149;28;20060;-76
2021/04/08 08:04:30;;;;;;;11.75;2.33;;;;;;;3.04;84.96;102082.75;5044460;28;20040;-74
2021/04/08 08:06:57;;;;;;;17.95;2.22;;;;;;;3.09;85.02;102086.84;5052310;28;20056;-75
2021/04/08 08:09:28;;;;;;;13.18;2.20;;;;;;;3.24;83.54;102084.47;5057706;28;20041;-75
2021/04/08 08:11:56;;;;;;;16.38;2.30;;;;;;;3.30;82.75;102081.63;5041148;28;20088;-78
2021/04/08 08:14:33;;;;;;;15.43;2.55;;;;;;;3.29;83.27;102090.31;5035248;28;20549;-75
2021/04/08 08:17:10;;;;;;;18.25;2.20;;;;;;;3.34;83.33;102097.91;5034720;28;20055;-77
2021/04/08 08:19:44;;;;;;;13.32;2.17;;;;;;;3.39;81.76;102094.22;5029313;28;20086;-76
2021/04/08 08:22:20;;;;;;;18.73;2.17;;;;;;;3.45;80.90;102095.69;5026906;28;20144;-77
2021/04/08 08:24:59;;;;;;;17.45;2.45;;;;;;;3.48;81.40;102093.81;5052778;28;20836;-78
2021/04/08 08:27:39;;;;;;;8.85;1.73;;;;;;;3.58;79.80;102095.97;5048418;28;20065;-79
2021/04/08 08:30:07;;;;;;;10.32;2.10;;;;;;;4.03;79.42;102082.69;5031109;28;20069;-77
2021/04/08 08:32:33;;;;;;;14.63;2.35;;;;;;;4.52;80.01;102091.66;5031590;28;20044;-76
2021/04/08 08:34:58;;;;;;;7.55;2.00;;;;;;;4.51;78.52;102090.81;5051589;28;20049;-77
2021/04/08 08:37:25;;;;;;;14.57;1.83;;;;;;;4.54;78.29;102088.09;5018765;28;20045;-76
2021/04/08 08:39:53;;;;;;;15.05;3.08;;;;;;;4.45;77.88;102086.75;5031569;28;20076;-76
2021/04/08 08:42:21;;;;;;;13.05;2.17;;;;;;;4.24;77.20;102093.81;5047906;28;20044;-74
2021/04/08 08:44:47;;;;;;;12.75;1.75;;;;;;;4.15;77.15;102094.25;5058329;28;20068;-77
2021/04/08 08:47:31;;;;;;;12.15;2.08;;;;;;;4.00;78.16;102095.81;5041232;28;20084;-75
2021/04/08 08:50:16;;;;;;;12.40;2.20;;;;;;;3.89;77.79;102103.25;5038782;28;20040;-77
2021/04/08 08:52:50;;;;;;;18.13;2.22;;;;;;;3.77;77.97;102099.44;5055439;28;20060;-75
2021/04/08 08:55:19;;;;;;;15.52;2.35;;;;;;;3.69;79.95;102105.00;5036292;28;20453;-76
2021/04/08 08:57:53;;;;;;;14.63;2.17;;;;;;;3.61;79.79;102104.47;5030361;28;20051;-75
2021/04/08 09:00:22;;;;;;;10.75;1.92;;;;;;;3.59;79.77;102101.09;5032428;28;20055;-75
2021/04/08 09:03:08;;;;;;;13.15;2.22;;;;;;;3.64;80.64;102098.31;5049528;28;20422;-76
2021/04/08 09:05:54;;;;;;;11.80;2.03;;;;;;;3.86;76.61;102103.38;5037100;28;20041;-76
2021/04/08 09:08:44;;;;;;;8.23;1.85;;;;;;;4.00;77.13;102094.97;5044000;28;20049;-77
2021/04/08 09:11:17;;;;;;;8.90;1.90;;;;;;;4.16;78.60;102105.47;5046065;28;20047;-75
2021/04/08 09:13:53;;;;;;;15.52;1.75;;;;;;;4.37;76.64;102098.41;5048894;28;20055;-75
2021/04/08 09:16:19;;;;;;;11.98;2.05;;;;;;;4.76;75.98;102095.66;5066634;28;20127;-75
2021/04/08 09:18:56;;;;;;;7.22;1.30;;;;;;;5.32;73.95;102096.31;5056322;28;20581;-75
2021/04/08 09:21:23;;;;;;;16.15;1.42;;;;;;;5.70;72.94;102092.63;5038832;28;20116;-75
2021/04/08 09:24:06;;;;;;;10.40;1.20;;;;;;;5.92;70.32;102095.75;5058549;28;20720;-76
2021/04/08 09:26:37;;;;;;;7.70;1.17;;;;;;;5.79;69.76;102106.00;5051316;28;20037;-76
2021/04/08 09:29:03;;;;;;;7.68;1.63;;;;;;;5.82;69.29;102104.97;5036441;28;20056;-75
2021/04/08 09:31:30;;;;;;;9.57;1.33;;;;;;;6.04;70.15;102102.09;5036095;28;20060;-80
2021/04/08 09:34:00;;;;;;;10.45;1.50;;;;;;;6.05;67.95;102111.59;5026123;28;20691;-75
2021/04/08 09:36:26;;;;;;;6.55;1.50;;;;;;;5.93;68.03;102104.41;4998339;28;20411;-75
2021/04/08 09:39:11;;;;;;;9.35;1.70;;;;;;;6.00;69.68;102105.78;5016416;28;20048;-77
2021/04/08 09:41:51;;;;;;;8.10;1.50;;;;;;;6.27;70.81;102103.44;5044564;28;20422;-81
2021/04/08 09:44:18;;;;;;;7.93;1.27;;;;;;;6.04;65.08;102097.72;5056174;28;20068;-79
2021/04/08 09:46:55;;;;;;;11.73;1.58;;;;;;;6.04;68.19;102097.72;5070195;28;20045;-77
2021/04/08 09:49:39;;;;;;;10.95;1.33;;;;;;;6.20;68.67;102102.09;5063410;28;20109;-77
2021/04/08 09:52:06;;;;;;;11.82;1.88;;;;;;;6.40;66.71;102101.84;5026103;28;20052;-77
2021/04/08 09:54:59;;;;;;;4.65;1.42;;;;;;;6.59;66.68;102108.59;5031740;28;20569;-78
2021/04/08 09:57:35;;;;;;;;;;;;;;;6.09;70.12;102101.84;5076616;28;20040;-77
2021/04/08 10:00:01;;;;;;;6.78;1.70;;;;;;;5.89;67.24;102102.91;5050009;28;20413;-75
2021/04/08 10:02:27;;;;;;;6.85;1.52;;;;;;;5.53;67.34;102115.16;5076594;28;20072;-77
2021/04/08 10:05:05;;;;;;;5.75;1.30;;;;;;;5.37;67.77;102112.53;5045192;28;20397;-77
2021/04/08 10:07:45;;;;;;;5.03;1.27;;;;;;;5.17;68.34;102123.13;5027971;28;20535;-76
2021/04/08 10:10:11;;;;;;;8.63;1.60;;;;;;;5.00;69.23;102118.75;5041567;28;20045;-79
2021/04/08 10:12:36;;;;;;;5.50;1.25;;;;;;;4.98;67.95;102118.00;5062039;28;20068;-79
2021/04/08 10:15:02;;;;;;;13.00;2.50;;;;;;;4.83;68.79;102123.03;5019885;28;20034;-78
2021/04/08 10:17:54;;;;;;;8.48;1.70;;;;;;;4.71;69.84;102130.59;5031578;28;20039;-79
2021/04/08 10:20:35;;;;;;;11.95;1.80;;;;;;;4.76;70.53;102133.81;5027998;28;20037;-79
2021/04/08 10:23:00;;;;;;;8.65;1.65;;;;;;;4.87;70.09;102132.34;5029675;28;21334;-77
2021/04/08 10:25:26;;;;;;;7.18;1.60;;;;;;;4.84;73.19;102127.34;5042002;28;20052;-75
2021/04/08 10:27:55;;;;;;;7.72;1.20;;;;;;;4.72;72.06;102132.28;5060976;28;20551;-78
2021/04/08 10:30:21;;;;;;;4.60;1.13;;;;;;;4.31;73.10;102142.88;5058555;28;20050;-75
2021/04/08 10:32:47;;;;;;;7.10;1.40;;;;;;;4.16;73.02;102147.84;5087387;28;20461;-76
2021/04/08 10:35:25;;;;;;;4.68;1.25;;;;;;;4.05;72.55;102143.19;5068187;28;20155;-76
2021/04/08 10:38:07;;;;;;;4.05;1.10;;;;;;;4.06;73.51;102149.19;5056458;28;20033;-76
2021/04/08 10:40:35;;;;;;;4.72;0.90;;;;;;;4.27;72.98;102139.56;5051440;28;20049;-78
2021/04/08 10:43:11;;;;;;;5.88;1.13;;;;;;;4.66;71.58;102149.84;5031480;28;20048;-77
2021/04/08 10:45:39;;;;;;;5.22;1.10;;;;;;;5.14;70.22;102138.88;5068391;28;20047;-78
2021/04/08 10:48:07;;;;;;;7.35;1.27;;;;;;;5.26;67.39;102140.88;5055109;28;20067;-78
2021/04/08 10:50:34;;;;;;;6.25;1.23;;;;;;;5.70;67.96;102136.88;5061862;28;20052;-79
2021/04/08 10:53:00;;;;;;;6.80;1.55;;;;;;;5.80;65.03;102138.06;5060444;28;20059;-77
2021/04/08 10:55:27;;;;;;;4.75;1.00;;;;;;;5.88;67.10;102129.84;5080644;28;20043;-74
2021/04/08 10:57:53;;;;;;;4.15;0.98;;;;;;;5.76;66.43;102140.00;5060207;28;20090;-79
2021/04/08 11:00:19;;;;;;;7.50;1.15;;;;;;;5.53;64.41;102138.59;5038426;28;20045;-77
2021/04/08 11:02:46;;;;;;;3.63;0.85;;;;;;;5.19;68.38;102142.91;5056313;28;20044;-76
2021/04/08 11:05:21;;;;;;;5.50;1.33;;;;;;;5.52;66.32;102138.66;5050988;28;20040;-78
2021/04/08 11:07:49;;;;;;;7.43;1.25;;;;;;;5.81;65.35;102137.16;5014079;28;20467;-76
2021/04/08 11:10:19;;;;;;;5.40;1.40;;;;;;;5.91;67.59;102135.72;5044473;28;20143;-77
2021/04/08 11:12:49;;;;;;;5.38;1.65;;;;;;;5.85;64.19;102133.47;5039505;28;20530;-74
2021/04/08 11:15:16;;;;;;;4.75;1.00;;;;;;;5.78;65.55;102138.19;5020332;28;20510;-77
2021/04/08 11:17:45;;;;;;;10.82;1.25;;;;;;;5.75;65.40;102134.88;5031364;28;20066;-75
2021/04/08 11:20:13;;;;;;;6.78;1.40;;;;;;;5.63;66.13;102136.34;5029574;28;20113;-76
2021/04/08 11:22:44;;;;;;;8.60;1.63;;;;;;;5.72;65.91;102140.25;5046336;28;20045;-76
2021/04/08 11:25:14;;;;;;;3.17;0.90;;;;;;;5.61;64.51;102139.06;5023069;28;20094;-78
2021/04/08 11:27:44;;;;;;;12.02;1.50;;;;;;;5.31;64.35;102133.66;5026901;28;20127;-74
2021/04/08 11:30:13;;;;;;;8.23;1.40;;;;;;;5.30;65.63;102142.38;5067099;28;20206;-78
2021/04/08 11:32:48;;;;;;;4.32;1.13;;;;;;;5.38;65.68;102136.78;5084856;28;20139;-78
2021/04/08 11:35:27;;;;;;;4.35;1.00;;;;;;;5.28;63.63;102135.59;5066187;28;20395;-78
2021/04/08 11:38:04;;;;;;;9.68;1.13;;;;;;;5.17;63.01;102134.34;5085712;28;20044;-80